Park City, UT

12:27 AM MDT on May 01, 2017 (GMT -0600)
Thaynes Creek Ranch | | Change Station

Elev 6808 ft 40.67 °N, 111.52 °W | Updated 15 seconds ago

Rain
Rain
41.1 °F
Feels Like 41 °F
N
3.0
Wind Variable Wind from SW

Today
High -- | Low -- °F
--% Chance of Precip.
Yesterday
High -- | Low -- °F
Precip. -- in
Pressure 30.09 in
Visibility 10.0 miles
Clouds Mostly Cloudy 7500 ft
Overcast 9000 ft
Windchill 41 °F
Dew Point 32 °F
Humidity 71%
Rainfall 0.00 in
Snow Depth Not available.
6:24 AM 8:22 PM
Waxing Crescent, 30% visible
METAR K36U 010616Z AUTO 00000KT 10SM BKN075 OVC090 07/M01 A3009 RMK AO2
Pressure 30.09 in
Visibility 10.0 miles
Clouds Mostly Cloudy 7500 ft
Overcast 9000 ft
Windchill 41 °F
Dew Point 32 °F
Humidity 71%
Rainfall 0.00 in
Snow Depth Not available.
6:24 AM 8:22 PM
Waxing Crescent, 30% visible
METAR K36U 010616Z AUTO 00000KT 10SM BKN075 OVC090 07/M01 A3009 RMK AO2

Get Severe Weather Alerts

Thanks for signing up!

Be on the lookout for a verification email in your inbox.

You'll start receiving the daily forecast at 8 AM.

×

10-Day Weather Forecast

Almanac

Astronomy

May. 01, 2017 Rise Set
Actual Time
Civil Twilight
Nautical Twilight
Astronomical Twilight
Moon
Length of Visible Light
Length of Day
Tomorrow will be .
, % of the Moon is Illuminated

Today's Extremes

State Highs State Lows

Community

WunderPhotos

WunderBlog® & News

Nearby

Air Quality

  Air Quality AQ Index Pollutant
Not available.

Snow Depth

Station Depth Elevation

Earthquake Activity

City Distance Mag. Time & Date
Minimum magnitude displayed is 2.5.

Coastal Water Temperatures

Place Temperature

Stations

Nearby Weather Stations

Station Location Temp. Windchill Dew Point Humidity Wind Precip. Elev Updated Type
                   

Watches & Warnings

There are currently no watches in effect.